Time;durP1;ratioP1;P1;durP2;ratioP2;P2;SDS_P1;SDS_P2;PMS_P1;PMS_P2;Temp;Humidity;BMP_temperature;BMP_pressure;BME280_temperature;BME280_humidity;BME280_pressure;Samples;Min_cycle;Max_cycle;Signal;HPM_P1;HPM_P2
2022/02/25 00:02:32;;;;;;;7.00;3.20;;;;;;;5.76;56.36;98245.16;219985;1273;22642;-71
2022/02/25 00:08:39;;;;;;;;;;;;;;;;;;;;;
2022/02/25 00:19:44;;;;;;;8.00;3.40;;;;;;;5.72;55.97;98243.41;219190;1274;24319;-70
2022/02/25 00:25:19;;;;;;;8.50;3.60;;;;;;;5.69;56.20;98245.86;220709;1273;22604;-71
2022/02/25 00:31:02;;;;;;;6.00;3.50;;;;;;;5.67;55.95;98244.22;220274;1273;22548;-71
2022/02/25 00:36:49;;;;;;;8.40;4.10;;;;;;;5.62;56.20;98240.72;220486;1271;22773;-71
2022/02/25 00:42:22;;;;;;;9.30;3.60;;;;;;;5.60;56.25;98235.30;220504;1270;23857;-71
2022/02/25 00:54:21;;;;;;;10.80;4.10;;;;;;;5.62;56.08;98236.05;220345;1271;26512;-70
2022/02/25 01:00:40;;;;;;;;;;;;;;;;;;;;;
2022/02/25 01:06:34;;;;;;;6.70;3.60;;;;;;;5.68;55.90;98228.16;220381;1273;22558;-71
2022/02/25 01:11:49;;;;;;;7.30;4.10;;;;;;;5.63;55.98;98226.00;220441;1273;24350;-70
2022/02/25 01:17:12;;;;;;;7.50;3.60;;;;;;;5.55;56.05;98223.30;220682;1271;22574;-71
2022/02/25 01:22:25;;;;;;;6.20;3.60;;;;;;;5.49;56.26;98226.34;220542;1271;24953;-71
2022/02/25 01:27:34;;;;;;;8.10;4.30;;;;;;;5.50;56.26;98225.70;220194;1273;24376;-71
2022/02/25 01:32:39;;;;;;;8.20;4.30;;;;;;;5.50;56.30;98228.34;220056;1273;22547;-71
2022/02/25 01:37:41;;;;;;;10.10;4.20;;;;;;;5.47;56.17;98229.20;219501;1271;24365;-70
2022/02/25 01:43:19;;;;;;;8.30;3.60;;;;;;;5.47;56.03;98225.33;219551;1271;22585;-70
2022/02/25 01:48:20;;;;;;;7.10;3.50;;;;;;;5.43;56.22;98219.50;219378;1271;24772;-70
2022/02/25 01:54:06;;;;;;;6.90;3.50;;;;;;;5.38;55.92;98220.56;219617;1273;22626;-70
2022/02/25 02:00:21;;;;;;;5.00;2.90;;;;;;;5.33;55.98;98210.48;219597;1273;22552;-70
2022/02/25 02:18:25;;;;;;;5.60;2.70;;;;;;;5.16;56.04;98197.27;220466;1271;22579;-71
2022/02/25 02:24:30;;;;;;;;;;;;;;;;;;;;;
2022/02/25 02:30:51;;;;;;;;;;;;;;;;;;;;;
2022/02/25 02:43:12;;;;;;;;;;;;;;;;;;;;;
2022/02/25 02:48:59;;;;;;;5.80;3.00;;;;;;;4.98;56.47;98207.30;219805;1273;25380;-70
2022/02/25 02:54:15;;;;;;;4.50;2.90;;;;;;;4.89;56.76;98204.65;219667;1273;22561;-70
2022/02/25 02:59:50;;;;;;;5.80;2.60;;;;;;;4.81;57.08;98216.69;220376;1271;22707;-71
2022/02/25 03:05:06;;;;;;;;;;;;;;;;;;;;;
2022/02/25 03:11:04;;;;;;;6.80;2.80;;;;;;;4.76;57.38;98221.89;220710;1271;22555;-70
2022/02/25 03:17:00;;;;;;;5.90;2.80;;;;;;;4.81;57.60;98226.55;220033;1274;25325;-70
2022/02/25 03:22:42;;;;;;;;;;;;;;;;;;;;;
2022/02/25 03:28:34;;;;;;;;;;;;;;;;;;;;;
2022/02/25 03:41:31;;;;;;;;;;;;;;;;;;;;;
2022/02/25 03:47:56;;;;;;;5.80;2.80;;;;;;;4.93;58.35;98257.05;220509;1273;22597;-69
2022/02/25 03:54:36;;;;;;;5.80;3.10;;;;;;;5.09;58.33;98270.60;220582;1271;26560;-70
2022/02/25 04:01:30;;;;;;;3.90;2.70;;;;;;;5.25;58.29;98285.53;220083;1272;24214;-71
2022/02/25 04:07:57;;;;;;;5.20;2.50;;;;;;;5.37;58.25;98293.34;220332;1272;22607;-70
2022/02/25 04:14:51;;;;;;;;;;;;;;;;;;;;;
2022/02/25 04:21:27;;;;;;;5.80;2.90;;;;;;;5.72;58.96;98358.33;220089;1273;25454;-71
2022/02/25 04:27:25;;;;;;;5.70;3.00;;;;;;;5.80;58.61;98366.99;220600;1271;22707;-71
2022/02/25 04:33:44;;;;;;;5.50;2.70;;;;;;;5.77;58.53;98376.35;220550;1271;22861;-71
2022/02/25 04:40:04;;;;;;;;;;;;;;;;;;;;;
2022/02/25 04:45:53;;;;;;;5.70;3.20;;;;;;;5.69;58.96;98385.64;220540;1273;22577;-71
2022/02/25 04:58:48;;;;;;;3.00;1.80;;;;;;;5.62;59.67;98404.15;220255;1274;24511;-70
2022/02/25 05:09:46;;;;;;;0.90;0.50;;;;;;;5.38;60.83;98432.16;220367;1273;24399;-71
2022/02/25 05:21:45;;;;;;;0.20;0.20;;;;;;;4.96;63.42;98469.41;220271;1273;25262;-70
2022/02/25 05:27:20;;;;;;;0.80;0.40;;;;;;;4.73;64.77;98488.73;219158;1273;25406;-70
2022/02/25 05:33:32;;;;;;;1.00;0.60;;;;;;;4.48;66.13;98526.76;219806;1271;22570;-71
2022/02/25 05:39:36;;;;;;;0.50;0.50;;;;;;;3.96;67.97;98549.08;219626;1271;22868;-70
2022/02/25 05:51:05;;;;;;;0.60;0.60;;;;;;;3.05;69.93;98579.10;219665;1271;24019;-71
2022/02/25 05:56:43;;;;;;;0.50;0.50;;;;;;;2.78;71.11;98593.64;219456;1273;24835;-69
2022/02/25 06:01:49;;;;;;;0.90;0.80;;;;;;;2.60;71.51;98591.34;219808;1273;22588;-69
2022/02/25 06:07:03;;;;;;;1.00;0.80;;;;;;;2.48;72.10;98600.63;219822;1271;23620;-69
2022/02/25 06:13:06;;;;;;;;;;;;;;;;;;;;;
2022/02/25 06:19:21;;;;;;;2.00;1.30;;;;;;;2.42;73.07;98653.45;220153;1273;25388;-70
2022/02/25 06:24:24;;;;;;;3.30;1.40;;;;;;;2.43;73.29;98672.45;220560;1273;22563;-70
2022/02/25 06:30:04;;;;;;;3.90;1.80;;;;;;;2.47;73.46;98679.93;219443;1272;26476;-69
2022/02/25 06:35:28;;;;;;;2.30;1.60;;;;;;;2.53;73.63;98678.73;219473;1273;22564;-70
2022/02/25 06:41:00;;;;;;;1.80;1.40;;;;;;;2.61;73.86;98691.11;219377;1272;22567;-68
2022/02/25 06:46:24;;;;;;;2.10;1.90;;;;;;;2.59;73.91;98699.92;219364;1273;22996;-71
2022/02/25 06:52:34;;;;;;;;;;;;;;;;;;;;;
2022/02/25 06:58:00;;;;;;;;;;;;;;;;;;;;;
2022/02/25 07:03:19;;;;;;;2.90;2.00;;;;;;;2.37;74.68;98704.30;219111;1271;24223;-69
2022/02/25 07:09:24;;;;;;;2.80;1.80;;;;;;;2.39;75.04;98720.86;218542;1273;22644;-69
2022/02/25 07:20:23;;;;;;;3.10;2.20;;;;;;;2.46;75.21;98763.88;219153;1271;22566;-70
2022/02/25 07:26:06;;;;;;;5.00;2.50;;;;;;;2.50;75.28;98766.34;218503;1274;23285;-69
2022/02/25 07:31:30;;;;;;;6.20;2.60;;;;;;;2.53;75.29;98777.80;219540;1273;22509;-69
2022/02/25 07:36:54;;;;;;;;;;;;;;;;;;;;;
2022/02/25 07:42:12;;;;;;;;;;;;;;;;;;;;;
2022/02/25 07:47:23;;;;;;;5.00;3.10;;;;;;;2.77;74.96;98793.24;218314;1276;22572;-69
2022/02/25 07:52:51;;;;;;;5.70;3.30;;;;;;;2.87;75.08;98795.48;218542;1276;22620;-69
2022/02/25 07:59:00;;;;;;;74.60;36.40;;;;;;;3.01;74.78;98803.61;218695;1276;22481;-71
2022/02/25 08:04:41;;;;;;;;;;;;;;;;;;;;;
2022/02/25 08:10:07;;;;;;;4.50;2.90;;;;;;;3.25;74.24;98820.08;218529;1276;22531;-68
2022/02/25 08:16:02;;;;;;;5.90;3.10;;;;;;;3.33;74.21;98830.33;218276;1277;22574;-69
2022/02/25 08:21:18;;;;;;;3.70;2.50;;;;;;;3.35;74.17;98835.59;218553;1276;25386;-69
2022/02/25 08:26:30;;;;;;;4.10;2.00;;;;;;;3.32;74.15;98842.59;218511;1276;25376;-68
2022/02/25 08:32:17;;;;;;;3.00;1.90;;;;;;;3.31;74.32;98843.84;218567;1276;22661;-69
2022/02/25 08:37:29;;;;;;;3.70;2.00;;;;;;;3.30;74.35;98846.16;218503;1277;24238;-69
2022/02/25 08:43:08;;;;;;;3.00;1.90;;;;;;;3.25;74.32;98852.07;218086;1276;24286;-68
2022/02/25 08:48:11;;;;;;;2.30;1.70;;;;;;;3.25;74.25;98854.13;218631;1276;24381;-68
2022/02/25 08:53:13;;;;;;;3.00;1.90;;;;;;;3.45;74.08;98852.45;218868;1276;25534;-68
2022/02/25 08:58:31;;;;;;;1.90;1.20;;;;;;;3.71;73.16;98856.42;218486;1277;25850;-68
2022/02/25 09:09:16;;;;;;;2.10;1.20;;;;;;;3.98;70.67;98868.86;218706;1277;25444;-69
2022/02/25 09:14:45;;;;;;;2.00;1.00;;;;;;;3.91;68.52;98880.89;218287;1276;22618;-69
2022/02/25 09:19:47;;;;;;;3.60;1.20;;;;;;;3.79;66.95;98882.24;217865;1277;22572;-69
2022/02/25 09:24:55;;;;;;;1.30;0.70;;;;;;;3.70;65.19;98874.90;218240;1276;25268;-68
2022/02/25 09:29:59;;;;;;;2.60;1.10;;;;;;;3.71;64.68;98877.23;218362;1277;22579;-70
2022/02/25 09:35:23;;;;;;;2.00;0.80;;;;;;;3.76;64.63;98876.00;218875;1276;22556;-68
2022/02/25 09:40:30;;;;;;;2.00;0.90;;;;;;;3.88;64.22;98892.94;218671;1277;22977;-67
2022/02/25 09:45:45;;;;;;;2.80;1.00;;;;;;;4.09;63.36;98893.05;218446;1276;23966;-69
2022/02/25 09:51:08;;;;;;;0.90;0.80;;;;;;;4.23;61.96;98895.90;218945;1276;22598;-69
2022/02/25 09:56:22;;;;;;;3.00;1.20;;;;;;;4.42;60.39;98906.52;218445;1276;22560;-72
2022/02/25 10:01:35;;;;;;;2.20;1.00;;;;;;;4.62;60.42;98903.90;220177;1276;22697;-68
2022/02/25 10:06:49;;;;;;;2.20;0.90;;;;;;;4.84;59.39;98901.98;218545;1277;22544;-69
2022/02/25 10:12:02;;;;;;;0.80;0.60;;;;;;;4.92;57.36;98916.33;218714;1277;22572;-70
2022/02/25 10:17:12;;;;;;;2.70;0.80;;;;;;;4.78;57.16;98914.02;218693;1277;25271;-69
2022/02/25 10:22:47;;;;;;;2.50;1.10;;;;;;;4.59;56.73;98912.84;218612;1277;25493;-69
2022/02/25 10:27:51;;;;;;;2.00;0.70;;;;;;;4.62;57.37;98914.77;218272;1277;23917;-69
2022/02/25 10:33:16;;;;;;;;;;;;;;;;;;;;;
2022/02/25 10:38:22;;;;;;;1.40;0.80;;;;;;;5.14;55.34;98925.38;220050;1277;23861;-70
2022/02/25 10:43:26;;;;;;;1.40;0.90;;;;;;;5.43;55.06;98927.23;218406;1276;25417;-70
2022/02/25 10:48:33;;;;;;;1.10;0.60;;;;;;;5.47;54.32;98927.48;218429;1277;25477;-70
2022/02/25 10:53:49;;;;;;;0.60;0.50;;;;;;;5.42;54.17;98927.64;219992;1277;22590;-70
2022/02/25 10:59:14;;;;;;;2.40;0.80;;;;;;;5.43;55.10;98928.23;220152;1277;23857;-70
2022/02/25 11:04:29;;;;;;;2.80;0.70;;;;;;;5.53;55.01;98933.70;220126;1277;25453;-70
2022/02/25 11:09:35;;;;;;;1.80;0.60;;;;;;;5.64;54.44;98938.13;219970;1277;22578;-70
2022/02/25 11:14:44;;;;;;;3.00;0.90;;;;;;;5.73;54.65;98936.81;218609;1277;23850;-69
2022/02/25 11:19:48;;;;;;;3.50;1.40;;;;;;;5.88;54.37;98930.83;218883;1277;22802;-70
2022/02/25 11:24:52;;;;;;;1.70;0.70;;;;;;;6.04;54.33;98933.27;218936;1277;25431;-70
2022/02/25 11:30:21;;;;;;;0.70;0.60;;;;;;;6.14;53.72;98933.55;220248;1277;22673;-70
2022/02/25 11:35:34;;;;;;;1.30;0.80;;;;;;;6.15;53.06;98937.23;220325;1277;23986;-70
2022/02/25 11:40:58;;;;;;;1.90;0.90;;;;;;;6.20;53.50;98930.61;220287;1277;22714;-70
2022/02/25 11:46:20;;;;;;;2.80;0.90;;;;;;;6.32;53.31;98929.16;218549;1277;22596;-70
2022/02/25 11:51:49;;;;;;;2.50;0.80;;;;;;;6.42;53.11;98928.70;220260;1277;22688;-70
2022/02/25 11:57:08;;;;;;;2.00;0.90;;;;;;;6.44;52.76;98930.08;218811;1277;22707;-70
2022/02/25 12:02:30;;;;;;;2.40;1.20;;;;;;;6.40;52.79;98924.63;220083;1276;22744;-69
2022/02/25 12:07:46;;;;;;;2.90;1.00;;;;;;;6.37;52.17;98923.88;218784;1277;25400;-69
2022/02/25 12:13:03;;;;;;;1.60;1.10;;;;;;;6.47;52.41;98914.88;219071;1277;22675;-70
2022/02/25 12:18:09;;;;;;;2.20;0.90;;;;;;;6.59;51.82;98917.44;218977;1277;22550;-70
2022/02/25 12:23:49;;;;;;;1.90;1.00;;;;;;;6.56;51.49;98916.41;218889;1277;22570;-69
2022/02/25 12:28:55;;;;;;;1.80;1.00;;;;;;;6.47;50.97;98921.00;218731;1277;22585;-68
2022/02/25 12:34:04;;;;;;;1.30;1.10;;;;;;;6.41;51.76;98922.55;218762;1277;22602;-69
2022/02/25 12:39:17;;;;;;;2.60;1.20;;;;;;;6.33;51.35;98923.69;218899;1276;22586;-69
2022/02/25 12:44:27;;;;;;;2.90;1.20;;;;;;;6.28;52.12;98923.92;218797;1276;22668;-69
2022/02/25 12:49:32;;;;;;;2.30;1.10;;;;;;;6.29;51.79;98929.56;218566;1277;22579;-69
2022/02/25 12:54:45;;;;;;;2.00;1.10;;;;;;;6.36;52.11;98926.85;218770;1277;22610;-69
2022/02/25 12:59:50;;;;;;;1.50;1.00;;;;;;;6.39;51.91;98927.45;219205;1277;22586;-69
2022/02/25 13:04:58;;;;;;;2.50;1.10;;;;;;;6.40;51.70;98924.26;218605;1277;22613;-69
2022/02/25 13:10:15;;;;;;;2.20;1.00;;;;;;;6.47;52.06;98928.40;218605;1276;25492;-69
2022/02/25 13:15:27;;;;;;;3.00;1.30;;;;;;;6.55;51.78;98930.58;218704;1277;22566;-69
2022/02/25 13:20:34;;;;;;;2.00;1.00;;;;;;;6.47;51.78;98935.59;218327;1277;22584;-69
2022/02/25 13:25:37;;;;;;;2.00;1.20;;;;;;;6.36;51.76;98936.58;218755;1277;25271;-70
2022/02/25 13:30:49;;;;;;;2.10;1.10;;;;;;;6.22;51.92;98937.76;218630;1276;22629;-69
2022/02/25 13:35:58;;;;;;;3.40;1.70;;;;;;;6.09;51.78;98933.73;218820;1277;22621;-69
2022/02/25 13:41:00;;;;;;;2.60;1.40;;;;;;;6.06;52.32;98935.66;218876;1276;23030;-69
2022/02/25 13:46:38;;;;;;;2.60;1.20;;;;;;;6.08;52.25;98936.33;218889;1277;22697;-69
2022/02/25 13:57:38;;;;;;;1.90;1.50;;;;;;;6.24;51.70;98938.21;219902;1276;25412;-68
2022/02/25 14:02:43;;;;;;;2.20;1.30;;;;;;;6.36;51.92;98940.45;218504;1277;25386;-68
2022/02/25 14:08:28;;;;;;;3.30;1.60;;;;;;;6.49;52.18;98951.41;218796;1276;25448;-68
2022/02/25 14:13:34;;;;;;;3.30;1.50;;;;;;;6.67;51.90;98952.95;218717;1276;22669;-69
2022/02/25 14:18:50;;;;;;;1.60;1.30;;;;;;;6.76;51.38;98951.89;218835;1277;25400;-69
2022/02/25 14:23:56;;;;;;;1.90;1.50;;;;;;;6.65;50.49;98954.33;219211;1276;23827;-69
2022/02/25 14:29:22;;;;;;;4.20;1.50;;;;;;;6.45;49.83;98944.62;218801;1276;22587;-68
2022/02/25 14:34:53;;;;;;;2.50;1.50;;;;;;;6.23;49.95;98946.70;218872;1276;22602;-69
2022/02/25 14:40:05;;;;;;;2.20;1.40;;;;;;;5.99;50.72;98942.59;218663;1276;22590;-68
2022/02/25 14:45:36;;;;;;;2.40;1.50;;;;;;;5.88;51.47;98942.84;218699;1277;22580;-70
2022/02/25 14:50:46;;;;;;;3.10;1.80;;;;;;;5.90;51.80;98945.30;218570;1276;24051;-70
2022/02/25 14:55:48;;;;;;;3.70;1.60;;;;;;;6.00;51.52;98948.23;219033;1276;24410;-69
2022/02/25 15:00:54;;;;;;;3.00;1.70;;;;;;;6.12;50.23;98951.69;218615;1276;24121;-69
2022/02/25 15:05:56;;;;;;;4.30;1.60;;;;;;;6.19;49.40;98954.20;219163;1275;22566;-68
2022/02/25 15:11:00;;;;;;;2.50;1.80;;;;;;;6.25;49.20;98960.13;218964;1276;22546;-69
2022/02/25 15:16:03;;;;;;;5.30;1.80;;;;;;;6.22;49.15;98966.72;219317;1276;22616;-70
2022/02/25 15:21:12;;;;;;;5.20;2.00;;;;;;;6.19;49.44;98978.98;219166;1277;26745;-70
2022/02/25 15:26:32;;;;;;;3.10;1.70;;;;;;;6.12;49.11;98985.41;219006;1276;22641;-69
2022/02/25 15:31:42;;;;;;;2.30;1.70;;;;;;;6.05;49.10;98988.97;218934;1276;25475;-70
2022/02/25 15:37:11;;;;;;;3.10;1.60;;;;;;;5.88;48.75;98987.42;218944;1276;25493;-69
2022/02/25 15:42:19;;;;;;;3.30;1.90;;;;;;;5.66;49.03;98993.67;219077;1276;24472;-69
2022/02/25 15:47:22;;;;;;;3.00;1.70;;;;;;;5.42;49.38;98994.65;219022;1276;22567;-68
2022/02/25 15:52:24;;;;;;;2.70;1.80;;;;;;;5.16;49.21;98995.69;218862;1276;22554;-70
2022/02/25 15:57:51;;;;;;;4.00;2.30;;;;;;;4.92;49.75;99006.67;218988;1276;23939;-69
2022/02/25 16:02:57;;;;;;;5.00;2.20;;;;;;;4.69;50.32;99023.19;218859;1277;22538;-69
2022/02/25 16:08:04;;;;;;;4.80;2.30;;;;;;;4.50;50.44;99024.35;218893;1276;22771;-69
2022/02/25 16:13:17;;;;;;;;;;;;;;;;;;;;;
2022/02/25 16:18:54;;;;;;;3.30;1.80;;;;;;;4.10;51.23;99033.09;219044;1276;25323;-69
2022/02/25 16:24:06;;;;;;;4.00;2.10;;;;;;;3.88;51.48;99038.23;218880;1276;22561;-70
2022/02/25 16:29:09;;;;;;;5.30;2.30;;;;;;;3.66;51.79;99044.98;218946;1276;23193;-68
2022/02/25 16:34:29;;;;;;;6.90;3.30;;;;;;;3.46;52.03;99051.05;219037;1275;26531;-69
2022/02/25 16:39:43;;;;;;;6.90;4.00;;;;;;;3.23;52.57;99055.32;219032;1276;22822;-69
2022/02/25 16:45:07;;;;;;;9.90;4.40;;;;;;;2.98;53.09;99063.98;218983;1276;22510;-67
2022/02/25 16:50:13;;;;;;;9.70;3.50;;;;;;;2.77;53.52;99072.72;219191;1276;25294;-68
2022/02/25 16:55:25;;;;;;;9.50;3.70;;;;;;;2.59;53.95;99081.79;219105;1276;24696;-68
2022/02/25 17:00:45;;;;;;;7.60;4.20;;;;;;;2.47;53.99;99079.95;219050;1276;25274;-68
2022/02/25 17:06:05;;;;;;;5.70;3.00;;;;;;;2.36;54.49;99082.50;219083;1276;22707;-69
2022/02/25 17:11:09;;;;;;;6.40;3.30;;;;;;;2.29;54.79;99085.55;219021;1276;22567;-68
2022/02/25 17:22:05;;;;;;;8.80;4.60;;;;;;;2.15;54.99;99097.79;219013;1276;22568;-71
2022/02/25 17:27:18;;;;;;;9.80;4.50;;;;;;;2.09;55.26;99106.77;219009;1276;24291;-69
2022/02/25 17:32:24;;;;;;;10.10;4.90;;;;;;;1.97;55.57;99114.29;218993;1276;25577;-69
2022/02/25 17:37:51;;;;;;;20.30;8.70;;;;;;;1.78;55.75;99123.48;218971;1276;22585;-69
2022/02/25 17:43:07;;;;;;;;;;;;;;;;;;;;;
2022/02/25 17:48:50;;;;;;;;;;;;;;;;;;;;;
2022/02/25 17:54:15;;;;;;;40.40;16.50;;;;;;;1.35;60.04;99141.13;218931;1276;24173;-69
2022/02/25 17:59:44;;;;;;;39.50;18.70;;;;;;;1.25;61.03;99148.09;218971;1276;22780;-69
2022/02/25 18:04:49;;;;;;;39.20;17.80;;;;;;;1.13;61.84;99147.02;218861;1276;22557;-69
2022/02/25 18:09:51;;;;;;;42.30;19.70;;;;;;;1.02;62.88;99147.15;218896;1276;25401;-69
2022/02/25 18:15:07;;;;;;;39.60;19.70;;;;;;;0.92;63.34;99154.15;218984;1276;24131;-70
2022/02/25 18:20:15;;;;;;;44.50;20.30;;;;;;;0.81;64.39;99166.75;218988;1276;25319;-69
2022/02/25 18:25:19;;;;;;;35.40;16.60;;;;;;;0.72;64.99;99175.16;219034;1276;23898;-70
2022/02/25 18:30:28;;;;;;;33.90;16.80;;;;;;;0.67;66.44;99180.38;219016;1276;26107;-69
2022/02/25 18:35:44;;;;;;;;;;;;;;;;;;;;;
2022/02/25 18:40:49;;;;;;;31.60;16.50;;;;;;;0.62;68.57;99187.88;218832;1276;24941;-69
2022/02/25 18:45:54;;;;;;;52.50;22.30;;;;;;;0.58;68.75;99193.30;219053;1276;22896;-69
2022/02/25 18:50:56;;;;;;;42.00;22.00;;;;;;;0.51;69.14;99198.90;219050;1276;25528;-69
2022/02/25 18:56:14;;;;;;;44.50;21.30;;;;;;;0.41;69.27;99201.34;218716;1276;25422;-70
2022/02/25 19:01:26;;;;;;;45.00;22.50;;;;;;;0.30;70.19;99209.59;218932;1276;25322;-70
2022/02/25 19:06:44;;;;;;;44.80;22.40;;;;;;;0.20;70.25;99213.58;219027;1276;22646;-69
2022/02/25 19:11:52;;;;;;;50.00;25.10;;;;;;;0.13;71.05;99213.03;218874;1276;22585;-70
2022/02/25 19:17:01;;;;;;;48.40;24.90;;;;;;;0.07;71.31;99214.55;219714;1276;22556;-69
2022/02/25 19:22:04;;;;;;;45.50;23.00;;;;;;;0.00;71.48;99215.52;218384;1276;653572;-69
2022/02/25 19:27:21;;;;;;;50.40;25.10;;;;;;;-0.10;71.63;99214.41;218997;1276;25505;-69
2022/02/25 19:32:33;;;;;;;42.00;23.30;;;;;;;-0.22;71.23;99221.98;218970;1276;25562;-70
2022/02/25 19:37:37;;;;;;;50.20;25.50;;;;;;;-0.33;72.17;99232.23;218711;1276;22729;-70
2022/02/25 19:42:40;;;;;;;49.30;23.90;;;;;;;-0.42;72.73;99231.19;218625;1276;25233;-68
2022/02/25 19:48:15;;;;;;;53.30;26.80;;;;;;;-0.49;72.89;99233.87;218923;1276;24241;-69
2022/02/25 19:53:24;;;;;;;57.00;28.80;;;;;;;-0.55;73.47;99241.73;218833;1276;22573;-70
2022/02/25 19:58:40;;;;;;;63.60;30.10;;;;;;;-0.59;73.71;99244.76;218711;1276;25434;-70
2022/02/25 20:04:04;;;;;;;79.80;37.80;;;;;;;-0.66;73.75;99252.38;219066;1276;23983;-69
2022/02/25 20:09:35;;;;;;;91.90;42.70;;;;;;;-0.76;73.75;99258.45;218879;1276;25472;-68
2022/02/25 20:15:23;;;;;;;82.60;40.10;;;;;;;-0.84;73.78;99264.60;218614;1276;25267;-68
2022/02/25 20:20:46;;;;;;;;;;;;;;;;;;;;;
2022/02/25 20:25:51;;;;;;;69.50;31.80;;;;;;;-0.93;74.13;99265.20;218909;1276;22624;-70
2022/02/25 20:30:57;;;;;;;78.40;37.00;;;;;;;-0.99;74.50;99265.96;218917;1276;25679;-70
2022/02/25 20:36:05;;;;;;;72.40;36.10;;;;;;;-1.03;74.89;99272.67;218680;1276;24338;-69
2022/02/25 20:41:55;;;;;;;64.80;34.50;;;;;;;-1.07;74.99;99275.25;218819;1276;24225;-70
2022/02/25 20:46:57;;;;;;;69.30;33.40;;;;;;;-1.12;75.40;99277.64;219218;1276;22582;-69
2022/02/25 20:52:28;;;;;;;;;;;;;;;;;;;;;
2022/02/25 20:58:09;;;;;;;70.10;32.70;;;;;;;-1.21;75.95;99289.91;218922;1277;24336;-70
2022/02/25 21:04:15;;;;;;;72.30;33.70;;;;;;;-1.26;75.87;99295.80;218677;1276;26382;-68
2022/02/25 21:10:05;;;;;;;69.70;30.80;;;;;;;-1.32;76.08;99292.80;219108;1276;22599;-69
2022/02/25 21:15:41;;;;;;;;;;;;;;;;;;;;;
2022/02/25 21:20:53;;;;;;;69.10;33.00;;;;;;;-1.31;76.69;99288.47;218847;1276;22564;-70
2022/02/25 21:26:29;;;;;;;73.80;33.20;;;;;;;-1.29;76.83;99287.73;218756;1276;24158;-70
2022/02/25 21:32:48;;;;;;;;;;;;;;;;;;;;;
2022/02/25 21:38:14;;;;;;;92.40;38.50;;;;;;;-1.29;77.07;99284.38;218837;1277;24298;-70
2022/02/25 21:43:41;;;;;;;86.60;38.80;;;;;;;-1.32;77.19;99283.42;219119;1276;24330;-69
2022/02/25 21:49:03;;;;;;;88.70;40.50;;;;;;;-1.35;77.28;99289.06;218757;1274;22713;-70
2022/02/25 21:54:15;;;;;;;83.10;38.40;;;;;;;-1.38;77.39;99289.58;218952;1276;22585;-70
2022/02/25 21:59:31;;;;;;;89.40;41.30;;;;;;;-1.41;77.42;99289.73;218866;1276;24255;-69
2022/02/25 22:04:57;;;;;;;82.20;37.60;;;;;;;-1.42;77.63;99287.63;218615;1276;22550;-69
2022/02/25 22:10:09;;;;;;;80.80;37.80;;;;;;;-1.41;77.72;99286.34;218832;1276;22550;-70
2022/02/25 22:15:18;;;;;;;84.60;39.00;;;;;;;-1.43;77.60;99282.45;218713;1276;25729;-69
2022/02/25 22:20:26;;;;;;;69.90;34.70;;;;;;;-1.44;77.74;99281.68;218359;1276;22763;-70
2022/02/25 22:25:28;;;;;;;77.70;37.70;;;;;;;-1.46;77.83;99282.61;218648;1276;22800;-68
2022/02/25 22:30:35;;;;;;;81.30;35.80;;;;;;;-1.47;77.90;99281.14;218715;1276;22564;-69
2022/02/25 22:35:43;;;;;;;75.40;34.90;;;;;;;-1.48;77.93;99287.60;218614;1276;23864;-69
2022/02/25 22:40:53;;;;;;;72.50;33.40;;;;;;;-1.50;77.92;99284.70;218888;1276;22641;-68
2022/02/25 22:46:08;;;;;;;64.00;31.80;;;;;;;-1.54;77.75;99286.73;218746;1276;22731;-70
2022/02/25 23:02:15;;;;;;;70.30;32.70;;;;;;;-1.59;77.91;99301.48;218595;1279;22570;-69
2022/02/25 23:07:18;;;;;;;66.20;31.90;;;;;;;-1.56;77.92;99305.77;218555;1276;22558;-69
2022/02/25 23:12:30;;;;;;;77.10;32.30;;;;;;;-1.51;77.95;99308.77;218852;1276;25478;-69
2022/02/25 23:17:35;;;;;;;76.50;36.10;;;;;;;-1.45;77.81;99308.60;218533;1276;26248;-70
2022/02/25 23:22:45;;;;;;;78.90;35.30;;;;;;;-1.42;77.74;99312.30;218749;1276;22753;-69
2022/02/25 23:27:54;;;;;;;78.30;34.40;;;;;;;-1.37;77.65;99316.11;219009;1276;22725;-70
2022/02/25 23:33:00;;;;;;;78.40;33.70;;;;;;;-1.32;77.51;99322.25;218930;1276;22747;-69
2022/02/25 23:38:14;;;;;;;78.70;35.10;;;;;;;-1.25;77.47;99324.89;218885;1276;22620;-69
2022/02/25 23:49:10;;;;;;;81.80;35.60;;;;;;;-1.09;77.27;99338.13;218814;1276;22829;-69
2022/02/25 23:54:28;;;;;;;76.90;32.40;;;;;;;-1.03;76.97;99344.69;218720;1276;25481;-70
